x

Diamond Shoals (41025) Wave Buoy

10:50 - Tue 28th Mar 2017 All times are EDT. -4 hours from GMT.

  • Sig Wave height 4.6ft
  • Swell Direction
  • Peak Period 10s
  • Average Period 6s
  • Wind
    20mph, 22mph gusts
  • Sea Temp 74°f
  • Aire Temp 72°f
  • Sea Pressure 1015.7mb
  • Diamond Shoals
  • Diamond Shoals

More Historic Weather Station data

Upgrade to MSW Pro to gain access to the past 30 days of data for over 8000 Wavebouys and Weather Stations around the globe.

Join Pro

Comparision Forecast

View Surf forecast
   
mar 03/28 10:50 4.5ft 10s 6s 20 22 mph 1015.7mb 74f 72f
9:50 5ft 9s 6s 18 22 mph 1016mb 74f 72f
8:50 4.5ft 10s 6s 18 22 mph 1015.9mb 75f 72f
7:50 5ft 10s 5s 20 22 mph 1015.9mb 74f 71f
6:50 5ft 10s 5s 18 22 mph 1015.7mb 74f 71f
5:50 5ft 8s 5s 20 25 mph 1015.3mb 73f 71f
4:50 5ft 9s 5s 18 22 mph 1015.1mb 74f 71f
3:50 5ft 10s 6s 20 22 mph 1015.4mb 74f 71f
2:50 4.5ft 8s 5s 20 25 mph 1015.8mb 74f 71f
1:50 4.5ft 10s 5s 20 25 mph 1016.2mb 74f 71f
12:50 5ft 9s 6s 20 22 mph 1016.6mb 74f 72f
lun 03/27 11:50 4.5ft 9s 6s 16 20 mph 1017.3mb 74f 71f
10:50 4.5ft 9s 6s 16 20 mph 1017.4mb 74f 72f
9:50 4.5ft 9s 6s 16 18 mph 1017.8mb 75f 71f
8:50 4ft 9s 7s 13 16 mph 1017.8mb 75f 71f
7:50 4.5ft 9s 7s 16 18 mph 1017.5mb 76f 71f
6:50 4.5ft 8s 7s 13 18 mph 1017.3mb 76f 71f
5:50 4ft 8s 7s 11 16 mph 1017.7mb 76f 72f
4:50 4ft 10s 7s 9 13 mph 1018.5mb 76f 71f
3:50 4ft 9s 7s 7 11 mph 1019.1mb 76f 71f
2:50 4ft 9s 6s 9 11 mph 1019.8mb 76f 71f
1:50 3.5ft 9s 6s 9 13 mph 1020.6mb 76f 71f
12:50 3.5ft 10s 6s 7 11 mph 1021.2mb 76f 71f
11:50 3.5ft 9s 6s 4 7 mph 1021.7mb 76f 71f
10:50 3ft 8s 6s 4 9 mph 1022mb 75f 71f
9:50 3.5ft 9s 6s 4 7 mph 1022.1mb 75f 70f
8:50 3ft 8s 6s 7 9 mph 1022mb 76f 70f
7:50 3.5ft 9s 6s 9 11 mph 1021.5mb 76f 70f
6:50 3.5ft 9s 6s 11 13 mph 1021.2mb 75f 69f
5:50 3.5ft 10s 5s 13 18 mph 1020.8mb 76f 70f
4:50 3.5ft 8s 5s 11 16 mph 1021mb 76f 69f
3:50 3.5ft 10s 5s 16 20 mph 1021.2mb 76f 69f
2:50 3.5ft 9s 5s 16 20 mph 1021.7mb 76f 69f
1:50 3.5ft 8s 5s 13 18 mph 1022.3mb 76f 69f
12:50 3.5ft 9s 5s 16 20 mph 1022.8mb 76f 69f
dom 03/26 11:50 3.5ft 8s 5s 18 20 mph 1023.1mb 76f 69f
10:50 3.5ft 9s 6s 16 18 mph 1023.6mb 76f 69f
9:50 3.5ft 9s 6s 13 16 mph 1024mb 76f 70f
8:50 3.5ft 10s 6s 9 13 mph 1023.7mb 76f 70f
7:50 3.5ft 8s 6s 11 16 mph 1023.4mb 76f 70f
6:50 3.5ft 8s 5s 9 13 mph 1023.3mb 76f 70f
5:50 3.5ft 10s 6s 9 11 mph 1023.3mb 76f 70f
4:50 3.5ft 9s 5s 9 11 mph 1023.2mb 76f 70f
3:50 3ft 8s 5s 7 9 mph 1023.5mb 75f 70f
2:50 3ft 8s 5s 9 11 mph 1024mb 75f 70f
12:50 3ft 8s 5s 9 11 mph 1025.3mb 74f 70f
11:50 3ft 8s 5s 11 13 mph 1025.8mb 74f 69f
10:50 3ft 8s 5s 11 16 mph 1026mb 74f 69f
9:50 3ft 8s 5s 13 16 mph 1025.9mb 75f 69f
8:50 3ft 8s 5s 11 13 mph 1025.8mb 75f 69f
7:50 3ft 9s 5s 16 18 mph 1025.3mb 75f 68f
6:50 3ft 8s 5s 16 20 mph 1024.4mb 75f 68f
5:50 2.5ft 5s 4s 13 18 mph 1024mb 75f 68f
4:50 2.5ft 5s 4s 16 20 mph 1023.7mb 75f 68f
3:50 3ft 5s 4s 18 20 mph 1023.7mb 76f 69f
2:50 2.5ft 7s 4s 18 22 mph 1024.2mb 76f 69f
1:50 3ft 5s 4s 18 22 mph 1024.7mb 76f 69f
12:50 3ft 5s 4s 18 20 mph 1024.9mb 76f 69f
sáb 03/25 11:50 3.5ft 5s 4s 18 22 mph 1025.2mb 76f 69f
10:50 3.5ft 5s 4s 16 20 mph 1025.5mb 76f 69f
9:50 3.5ft 5s 4s 18 22 mph 1025.3mb 76f 70f
8:50 3.5ft 5s 4s 20 25 mph 1025.2mb 76f 70f
7:50 3ft 5s 4s 18 22 mph 1025.1mb 77f 71f
6:50 3ft 5s 4s 18 22 mph 1024.9mb 77f 70f
5:50 3ft 5s 4s 18 20 mph 1024.9mb 77f 70f
4:50 2.5ft 5s 4s 18 20 mph 1025.2mb 77f 70f
3:50 3ft 5s 4s 18 20 mph 1025.4mb 77f 71f
2:50 3ft 5s 4s 18 22 mph 1026mb 77f 71f
1:50 2.5ft 10s 5s 20 22 mph 1026.6mb 77f 70f
12:50 2.5ft 8s 5s 16 20 mph 1027.3mb 76f 69f
11:50 3ft 6s 4s 16 20 mph 1028mb 76f 69f
10:50 3.5ft 5s 4s 16 20 mph 1028.5mb 76f 69f
9:50 3ft 5s 4s 18 20 mph 1028.3mb 76f 68f
8:50 3.5ft 5s 4s 16 20 mph 1028.1mb 76f 69f
7:50 3.5ft 5s 4s 16 20 mph 1027.1mb 76f 69f
6:50 4.5ft 5s 4s 16 18 mph 1026.8mb 76f 69f
5:50 4.5ft 5s 4s 20 25 mph 1026.9mb 76f 69f
4:50 4.5ft 5s 4s 22 27 mph 1027mb 76f 69f
3:50 4.5ft 4s 4s 20 27 mph 1027.3mb 76f 68f
2:50 4.5ft 4s 4s 22 27 mph 1027.7mb 76f 68f
1:50 4ft 4s 4s 25 29 mph 1027.9mb 76f 67f
12:50 4ft 11s 4s 22 27 mph 1028.6mb 75f 67f
vie 03/24 11:50 4.5ft 11s 4s 22 29 mph 1028.6mb 75f 67f
10:50 4ft 10s 4s 22 27 mph 1028.8mb 75f 67f
9:50 4ft 10s 5s 22 27 mph 1029mb 74f 66f
8:50 3.5ft 9s 5s 22 27 mph 1029.1mb 74f 66f